sensor_id;sensor_type;location;lat;lon;timestamp;pressure;altitude;pressure_sealevel;temperature;humidity
28630;BME280;15817;42.130;24.762;2023-04-04T00:00:32;98553.03;;;10.73;100.00
28630;BME280;15817;42.130;24.762;2023-04-04T00:02:58;98546.88;;;10.73;100.00
28630;BME280;15817;42.130;24.762;2023-04-04T00:05:24;98552.31;;;10.68;100.00
28630;BME280;15817;42.130;24.762;2023-04-04T00:07:50;98546.91;;;10.71;100.00
28630;BME280;15817;42.130;24.762;2023-04-04T00:10:16;98543.50;;;10.66;100.00
28630;BME280;15817;42.130;24.762;2023-04-04T00:12:42;98518.88;;;10.60;100.00
28630;BME280;15817;42.130;24.762;2023-04-04T00:15:11;98520.41;;;10.68;100.00
28630;BME280;15817;42.130;24.762;2023-04-04T00:17:37;98523.06;;;10.68;100.00
28630;BME280;15817;42.130;24.762;2023-04-04T00:20:04;98517.66;;;10.71;100.00
28630;BME280;15817;42.130;24.762;2023-04-04T00:22:29;98506.22;;;10.68;100.00
28630;BME280;15817;42.130;24.762;2023-04-04T00:24:55;98515.03;;;10.70;100.00
28630;BME280;15817;42.130;24.762;2023-04-04T00:27:21;98512.34;;;10.71;100.00
28630;BME280;15817;42.130;24.762;2023-04-04T00:29:48;98507.03;;;10.71;100.00
28630;BME280;15817;42.130;24.762;2023-04-04T00:32:13;98506.22;;;10.68;100.00
28630;BME280;15817;42.130;24.762;2023-04-04T00:34:40;98507.06;;;10.70;100.00
28630;BME280;15817;42.130;24.762;2023-04-04T00:37:06;98511.50;;;10.69;100.00
28630;BME280;15817;42.130;24.762;2023-04-04T00:39:32;98514.16;;;10.69;100.00
28630;BME280;15817;42.130;24.762;2023-04-04T00:41:59;98518.56;;;10.70;100.00
28630;BME280;15817;42.130;24.762;2023-04-04T00:44:25;98515.19;;;10.64;100.00
28630;BME280;15817;42.130;24.762;2023-04-04T00:46:51;98509.91;;;10.62;100.00
28630;BME280;15817;42.130;24.762;2023-04-04T00:49:17;98502.66;;;10.69;100.00
28630;BME280;15817;42.130;24.762;2023-04-04T00:51:43;98499.19;;;10.65;100.00
28630;BME280;15817;42.130;24.762;2023-04-04T00:54:09;98508.88;;;10.68;100.00
28630;BME280;15817;42.130;24.762;2023-04-04T00:56:36;98492.19;;;10.63;100.00
28630;BME280;15817;42.130;24.762;2023-04-04T00:59:04;98501.78;;;10.68;100.00
28630;BME280;15817;42.130;24.762;2023-04-04T01:01:30;98500.88;;;10.69;100.00
28630;BME280;15817;42.130;24.762;2023-04-04T01:03:57;98491.94;;;10.72;100.00
28630;BME280;15817;42.130;24.762;2023-04-04T01:06:23;98482.22;;;10.71;100.00
28630;BME280;15817;42.130;24.762;2023-04-04T01:08:51;98483.22;;;10.67;100.00
28630;BME280;15817;42.130;24.762;2023-04-04T01:11:17;98482.38;;;10.65;100.00
28630;BME280;15817;42.130;24.762;2023-04-04T01:13:46;98492.06;;;10.67;100.00
28630;BME280;15817;42.130;24.762;2023-04-04T01:16:14;98494.72;;;10.67;100.00
28630;BME280;15817;42.130;24.762;2023-04-04T01:18:41;98484.91;;;10.69;100.00
28630;BME280;15817;42.130;24.762;2023-04-04T01:21:12;98489.22;;;10.73;100.00
28630;BME280;15817;42.130;24.762;2023-04-04T01:26:12;98485.75;;;10.71;100.00
28630;BME280;15817;42.130;24.762;2023-04-04T01:28:38;98473.44;;;10.67;100.00
28630;BME280;15817;42.130;24.762;2023-04-04T01:31:11;98453.09;;;10.66;100.00
28630;BME280;15817;42.130;24.762;2023-04-04T01:33:44;98476.09;;;10.67;100.00
28630;BME280;15817;42.130;24.762;2023-04-04T01:38:53;98464.56;;;10.68;100.00
28630;BME280;15817;42.130;24.762;2023-04-04T01:41:22;98461.88;;;10.70;100.00
28630;BME280;15817;42.130;24.762;2023-04-04T01:43:56;98464.59;;;10.67;100.00
28630;BME280;15817;42.130;24.762;2023-04-04T01:46:23;98456.75;;;10.62;100.00
28630;BME280;15817;42.130;24.762;2023-04-04T01:48:49;98458.50;;;10.63;100.00
28630;BME280;15817;42.130;24.762;2023-04-04T01:51:20;98456.63;;;10.67;100.00
28630;BME280;15817;42.130;24.762;2023-04-04T01:53:48;98462.13;;;10.61;100.00
28630;BME280;15817;42.130;24.762;2023-04-04T01:56:14;98448.78;;;10.62;100.00
28630;BME280;15817;42.130;24.762;2023-04-04T01:58:40;98453.09;;;10.66;100.00
28630;BME280;15817;42.130;24.762;2023-04-04T02:01:11;98464.56;;;10.68;100.00
28630;BME280;15817;42.130;24.762;2023-04-04T02:03:40;98453.06;;;10.68;100.00
28630;BME280;15817;42.130;24.762;2023-04-04T02:06:06;98440.66;;;10.67;100.00
28630;BME280;15817;42.130;24.762;2023-04-04T02:08:32;98446.81;;;10.69;100.00
28630;BME280;15817;42.130;24.762;2023-04-04T02:10:58;98446.88;;;10.67;100.00
28630;BME280;15817;42.130;24.762;2023-04-04T02:13:27;98453.16;;;10.63;100.00
28630;BME280;15817;42.130;24.762;2023-04-04T02:15:55;98441.66;;;10.63;100.00
28630;BME280;15817;42.130;24.762;2023-04-04T02:18:21;98452.19;;;10.67;100.00
28630;BME280;15817;42.130;24.762;2023-04-04T02:20:54;98448.69;;;10.65;100.00
28630;BME280;15817;42.130;24.762;2023-04-04T02:23:20;98449.44;;;10.70;100.00
28630;BME280;15817;42.130;24.762;2023-04-04T02:25:49;98442.53;;;10.63;100.00
28630;BME280;15817;42.130;24.762;2023-04-04T02:28:15;98437.09;;;10.68;100.00
28630;BME280;15817;42.130;24.762;2023-04-04T02:30:41;98451.22;;;10.70;100.00
28630;BME280;15817;42.130;24.762;2023-04-04T02:33:07;98452.22;;;10.66;100.00
28630;BME280;15817;42.130;24.762;2023-04-04T02:35:33;98461.81;;;10.71;100.00
28630;BME280;15817;42.130;24.762;2023-04-04T02:37:59;98457.41;;;10.70;100.00
28630;BME280;15817;42.130;24.762;2023-04-04T02:40:35;98452.97;;;10.71;100.00
28630;BME280;15817;42.130;24.762;2023-04-04T02:43:06;98450.31;;;10.71;100.00
28630;BME280;15817;42.130;24.762;2023-04-04T02:45:32;98454.66;;;10.73;100.00
28630;BME280;15817;42.130;24.762;2023-04-04T02:48:05;98466.94;;;10.77;100.00
28630;BME280;15817;42.130;24.762;2023-04-04T02:50:42;98453.69;;;10.76;100.00
28630;BME280;15817;42.130;24.762;2023-04-04T02:53:11;98447.69;;;10.69;100.00
28630;BME280;15817;42.130;24.762;2023-04-04T02:55:37;98455.44;;;10.77;100.00
28630;BME280;15817;42.130;24.762;2023-04-04T02:58:13;98452.72;;;10.78;100.00
28630;BME280;15817;42.130;24.762;2023-04-04T03:00:39;98466.03;;;10.78;100.00
28630;BME280;15817;42.130;24.762;2023-04-04T03:03:05;98455.50;;;10.74;100.00
28630;BME280;15817;42.130;24.762;2023-04-04T03:05:36;98456.38;;;10.74;100.00
28630;BME280;15817;42.130;24.762;2023-04-04T03:08:04;98448.38;;;10.76;100.00
28630;BME280;15817;42.130;24.762;2023-04-04T03:10:30;98456.22;;;10.80;100.00
28630;BME280;15817;42.130;24.762;2023-04-04T03:12:57;98458.88;;;10.80;100.00
28630;BME280;15817;42.130;24.762;2023-04-04T03:15:28;98458.88;;;10.80;100.00
28630;BME280;15817;42.130;24.762;2023-04-04T03:17:54;98451.81;;;10.79;100.00
28630;BME280;15817;42.130;24.762;2023-04-04T03:20:25;98454.34;;;10.84;100.00
28630;BME280;15817;42.130;24.762;2023-04-04T03:22:51;98463.38;;;10.78;100.00
28630;BME280;15817;42.130;24.762;2023-04-04T03:25:20;98452.84;;;10.74;100.00
28630;BME280;15817;42.130;24.762;2023-04-04T03:27:46;98455.59;;;10.72;100.00
28630;BME280;15817;42.130;24.762;2023-04-04T03:30:22;98460.75;;;10.77;100.00
28630;BME280;15817;42.130;24.762;2023-04-04T03:32:48;98461.72;;;10.74;100.00
28630;BME280;15817;42.130;24.762;2023-04-04T03:35:15;98478.50;;;10.76;100.00
28630;BME280;15817;42.130;24.762;2023-04-04T03:37:43;98475.91;;;10.73;100.00
28630;BME280;15817;42.130;24.762;2023-04-04T03:40:22;98482.19;;;10.72;100.00
28630;BME280;15817;42.130;24.762;2023-04-04T03:42:48;98484.75;;;10.74;100.00
28630;BME280;15817;42.130;24.762;2023-04-04T03:45:18;98482.03;;;10.77;100.00
28630;BME280;15817;42.130;24.762;2023-04-04T03:47:44;98476.00;;;10.72;100.00
28630;BME280;15817;42.130;24.762;2023-04-04T03:50:10;98474.97;;;10.76;100.00
28630;BME280;15817;42.130;24.762;2023-04-04T03:52:39;98477.63;;;10.76;100.00
28630;BME280;15817;42.130;24.762;2023-04-04T03:55:08;98476.88;;;10.72;100.00
28630;BME280;15817;42.130;24.762;2023-04-04T03:57:57;98487.44;;;10.74;100.00
28630;BME280;15817;42.130;24.762;2023-04-04T04:00:24;98497.09;;;10.76;100.00
28630;BME280;15817;42.130;24.762;2023-04-04T04:02:51;98486.66;;;10.70;100.00
28630;BME280;15817;42.130;24.762;2023-04-04T04:05:17;98490.16;;;10.72;100.00
28630;BME280;15817;42.130;24.762;2023-04-04T04:07:44;98493.53;;;10.77;100.00
28630;BME280;15817;42.130;24.762;2023-04-04T04:10:11;98498.81;;;10.79;100.00
28630;BME280;15817;42.130;24.762;2023-04-04T04:12:38;98487.34;;;10.77;100.00
28630;BME280;15817;42.130;24.762;2023-04-04T04:15:07;98491.88;;;10.73;100.00
28630;BME280;15817;42.130;24.762;2023-04-04T04:17:37;98494.44;;;10.76;100.00
28630;BME280;15817;42.130;24.762;2023-04-04T04:20:03;98494.34;;;10.81;100.00
28630;BME280;15817;42.130;24.762;2023-04-04T04:22:36;98494.19;;;10.85;100.00
28630;BME280;15817;42.130;24.762;2023-04-04T04:25:03;98491.75;;;10.78;100.00
28630;BME280;15817;42.130;24.762;2023-04-04T04:27:30;98489.97;;;10.78;100.00
28630;BME280;15817;42.130;24.762;2023-04-04T04:29:56;98495.28;;;10.78;100.00
28630;BME280;15817;42.130;24.762;2023-04-04T04:32:23;98497.91;;;10.80;100.00
28630;BME280;15817;42.130;24.762;2023-04-04T04:34:52;98490.97;;;10.74;100.00
28630;BME280;15817;42.130;24.762;2023-04-04T04:37:23;98501.47;;;10.79;100.00
28630;BME280;15817;42.130;24.762;2023-04-04T04:39:53;98500.53;;;10.81;100.00
28630;BME280;15817;42.130;24.762;2023-04-04T04:42:34;98492.63;;;10.78;100.00
28630;BME280;15817;42.130;24.762;2023-04-04T04:45:02;98500.53;;;10.81;100.00
28630;BME280;15817;42.130;24.762;2023-04-04T04:47:33;98498.63;;;10.85;100.00
28630;BME280;15817;42.130;24.762;2023-04-04T04:50:03;98506.56;;;10.86;100.00
28630;BME280;15817;42.130;24.762;2023-04-04T04:52:49;98509.34;;;10.83;100.00
28630;BME280;15817;42.130;24.762;2023-04-04T04:55:16;98500.56;;;10.80;100.00
28630;BME280;15817;42.130;24.762;2023-04-04T04:57:49;98506.78;;;10.79;100.00
28630;BME280;15817;42.130;24.762;2023-04-04T05:00:25;98501.44;;;10.80;100.00
28630;BME280;15817;42.130;24.762;2023-04-04T05:03:10;98496.94;;;10.82;100.00
28630;BME280;15817;42.130;24.762;2023-04-04T05:05:41;98506.78;;;10.79;100.00
28630;BME280;15817;42.130;24.762;2023-04-04T05:08:20;98492.63;;;10.78;100.00
28630;BME280;15817;42.130;24.762;2023-04-04T05:11:15;98507.59;;;10.82;100.00
28630;BME280;15817;42.130;24.762;2023-04-04T05:13:44;98491.75;;;10.78;100.00
28630;BME280;15817;42.130;24.762;2023-04-04T05:16:10;98499.59;;;10.82;100.00
28630;BME280;15817;42.130;24.762;2023-04-04T05:18:43;98489.97;;;10.78;100.00
28630;BME280;15817;42.130;24.762;2023-04-04T05:21:37;98499.56;;;10.84;100.00
28630;BME280;15817;42.130;24.762;2023-04-04T05:24:10;98490.81;;;10.80;100.00
28630;BME280;15817;42.130;24.762;2023-04-04T05:26:44;98481.94;;;10.80;100.00
28630;BME280;15817;42.130;24.762;2023-04-04T05:29:12;98495.19;;;10.81;100.00
28630;BME280;15817;42.130;24.762;2023-04-04T05:31:44;98496.03;;;10.83;100.00
28630;BME280;15817;42.130;24.762;2023-04-04T05:34:16;98496.16;;;10.79;100.00
28630;BME280;15817;42.130;24.762;2023-04-04T05:36:42;98497.19;;;10.73;100.00
28630;BME280;15817;42.130;24.762;2023-04-04T05:39:09;98494.44;;;10.76;100.00
28630;BME280;15817;42.130;24.762;2023-04-04T05:41:49;98489.06;;;10.79;100.00
28630;BME280;15817;42.130;24.762;2023-04-04T05:44:22;98489.94;;;10.80;100.00
28630;BME280;15817;42.130;24.762;2023-04-04T05:46:57;98499.56;;;10.84;100.00
28630;BME280;15817;42.130;24.762;2023-04-04T05:49:25;98495.13;;;10.84;100.00
28630;BME280;15817;42.130;24.762;2023-04-04T05:51:57;98512.88;;;10.84;100.00
28630;BME280;15817;42.130;24.762;2023-04-04T05:54:33;98512.78;;;10.85;100.00
28630;BME280;15817;42.130;24.762;2023-04-04T05:57:09;98502.28;;;10.82;100.00
28630;BME280;15817;42.130;24.762;2023-04-04T05:59:39;98506.69;;;10.83;100.00
28630;BME280;15817;42.130;24.762;2023-04-04T06:02:07;98507.44;;;10.87;100.00
28630;BME280;15817;42.130;24.762;2023-04-04T06:04:37;98511.84;;;10.88;100.00
28630;BME280;15817;42.130;24.762;2023-04-04T06:07:06;98516.22;;;10.91;100.00
28630;BME280;15817;42.130;24.762;2023-04-04T06:09:35;98520.66;;;10.90;100.00
28630;BME280;15817;42.130;24.762;2023-04-04T06:12:01;98527.81;;;10.88;100.00
28630;BME280;15817;42.130;24.762;2023-04-04T06:14:30;98525.06;;;10.91;100.00
28630;BME280;15817;42.130;24.762;2023-04-04T06:16:57;98532.09;;;10.94;100.00
28630;BME280;15817;42.130;24.762;2023-04-04T06:19:29;98527.53;;;10.97;100.00
28630;BME280;15817;42.130;24.762;2023-04-04T06:22:01;98533.72;;;10.98;100.00
28630;BME280;15817;42.130;24.762;2023-04-04T06:24:30;98517.09;;;10.91;100.00
28630;BME280;15817;42.130;24.762;2023-04-04T06:26:56;98526.72;;;10.95;100.00
28630;BME280;15817;42.130;24.762;2023-04-04T06:29:24;98532.78;;;11.00;100.00
28630;BME280;15817;42.130;24.762;2023-04-04T06:31:52;98525.66;;;11.01;100.00
28630;BME280;15817;42.130;24.762;2023-04-04T06:34:23;98522.22;;;10.97;100.00
28630;BME280;15817;42.130;24.762;2023-04-04T06:36:58;98530.19;;;10.97;100.00
28630;BME280;15817;42.130;24.762;2023-04-04T06:39:28;98524.94;;;10.96;100.00
28630;BME280;15817;42.130;24.762;2023-04-04T06:41:58;98519.50;;;10.99;100.00
28630;BME280;15817;42.130;24.762;2023-04-04T06:44:27;98527.41;;;11.02;100.00
28630;BME280;15817;42.130;24.762;2023-04-04T06:46:56;98514.16;;;11.00;100.00
28630;BME280;15817;42.130;24.762;2023-04-04T06:49:32;98522.91;;;11.04;100.00
28630;BME280;15817;42.130;24.762;2023-04-04T06:52:01;98523.78;;;11.04;100.00
28630;BME280;15817;42.130;24.762;2023-04-04T06:54:28;98513.19;;;11.03;100.00
28630;BME280;15817;42.130;24.762;2023-04-04T06:56:54;98520.09;;;11.08;100.00
28630;BME280;15817;42.130;24.762;2023-04-04T06:59:32;98514.03;;;11.05;100.00
28630;BME280;15817;42.130;24.762;2023-04-04T07:01:58;98521.06;;;11.07;100.00
28630;BME280;15817;42.130;24.762;2023-04-04T07:04:23;98519.22;;;11.08;100.00
28630;BME280;15817;42.130;24.762;2023-04-04T07:06:50;98517.56;;;11.05;100.00
28630;BME280;15817;42.130;24.762;2023-04-04T07:09:19;98514.69;;;11.11;100.00
28630;BME280;15817;42.130;24.762;2023-04-04T07:11:48;98524.38;;;11.14;100.00
28630;BME280;15817;42.130;24.762;2023-04-04T07:14:13;98518.22;;;11.12;100.00
28630;BME280;15817;42.130;24.762;2023-04-04T07:16:40;98525.13;;;11.19;100.00
28630;BME280;15817;42.130;24.762;2023-04-04T07:19:06;98531.41;;;11.16;100.00
28630;BME280;15817;42.130;24.762;2023-04-04T07:21:34;98527.69;;;11.22;100.00
28630;BME280;15817;42.130;24.762;2023-04-04T07:24:04;98532.91;;;11.25;100.00
28630;BME280;15817;42.130;24.762;2023-04-04T07:26:30;98542.56;;;11.29;100.00
28630;BME280;15817;42.130;24.762;2023-04-04T07:28:59;98536.41;;;11.27;100.00
28630;BME280;15817;42.130;24.762;2023-04-04T07:31:31;98537.28;;;11.28;100.00
28630;BME280;15817;42.130;24.762;2023-04-04T07:34:00;98539.03;;;11.29;100.00
28630;BME280;15817;42.130;24.762;2023-04-04T07:36:31;98538.03;;;11.31;100.00
28630;BME280;15817;42.130;24.762;2023-04-04T07:39:15;98547.59;;;11.38;100.00
28630;BME280;15817;42.130;24.762;2023-04-04T07:41:49;98546.78;;;11.36;100.00
28630;BME280;15817;42.130;24.762;2023-04-04T07:44:18;98545.94;;;11.34;100.00
28630;BME280;15817;42.130;24.762;2023-04-04T07:46:47;98548.53;;;11.37;100.00
28630;BME280;15817;42.130;24.762;2023-04-04T07:49:15;98545.91;;;11.36;100.00
28630;BME280;15817;42.130;24.762;2023-04-04T07:51:41;98559.97;;;11.41;100.00
28630;BME280;15817;42.130;24.762;2023-04-04T07:54:12;98545.03;;;11.35;100.00
28630;BME280;15817;42.130;24.762;2023-04-04T07:56:42;98552.97;;;11.37;100.00
28630;BME280;15817;42.130;24.762;2023-04-04T07:59:14;98548.31;;;11.43;100.00
28630;BME280;15817;42.130;24.762;2023-04-04T08:01:49;98537.75;;;11.42;100.00
28630;BME280;15817;42.130;24.762;2023-04-04T08:04:20;98547.31;;;11.47;100.00
28630;BME280;15817;42.130;24.762;2023-04-04T08:06:49;98536.63;;;11.49;100.00
28630;BME280;15817;42.130;24.762;2023-04-04T08:09:18;98534.75;;;11.52;100.00
28630;BME280;15817;42.130;24.762;2023-04-04T08:11:46;98541.56;;;11.61;100.00
28630;BME280;15817;42.130;24.762;2023-04-04T08:14:21;98552.94;;;11.66;100.00
28630;BME280;15817;42.130;24.762;2023-04-04T08:16:54;98548.66;;;11.62;100.00
28630;BME280;15817;42.130;24.762;2023-04-04T08:19:26;98550.38;;;11.63;100.00
28630;BME280;15817;42.130;24.762;2023-04-04T08:21:52;98549.50;;;11.63;100.00
28630;BME280;15817;42.130;24.762;2023-04-04T08:27:23;98559.25;;;11.64;100.00
28630;BME280;15817;42.130;24.762;2023-04-04T08:29:55;98554.78;;;11.64;100.00
28630;BME280;15817;42.130;24.762;2023-04-04T08:32:47;98554.00;;;11.60;100.00
28630;BME280;15817;42.130;24.762;2023-04-04T08:35:55;98555.66;;;11.65;100.00
28630;BME280;15817;42.130;24.762;2023-04-04T08:38:22;98560.00;;;11.67;100.00
28630;BME280;15817;42.130;24.762;2023-04-04T08:40:49;98559.03;;;11.70;100.00
28630;BME280;15817;42.130;24.762;2023-04-04T08:43:21;98567.03;;;11.70;100.00
28630;BME280;15817;42.130;24.762;2023-04-04T08:45:52;98554.59;;;11.70;100.00
28630;BME280;15817;42.130;24.762;2023-04-04T08:48:27;98558.72;;;11.80;100.00
28630;BME280;15817;42.130;24.762;2023-04-04T08:50:58;98561.47;;;11.77;100.00
28630;BME280;15817;42.130;24.762;2023-04-04T08:56:32;98571.00;;;11.86;100.00
28630;BME280;15817;42.130;24.762;2023-04-04T08:59:14;98568.28;;;11.87;100.00
28630;BME280;15817;42.130;24.762;2023-04-04T09:01:50;98572.84;;;11.84;100.00
28630;BME280;15817;42.130;24.762;2023-04-04T09:04:31;98569.34;;;11.82;100.00
28630;BME280;15817;42.130;24.762;2023-04-04T09:07:16;98565.72;;;11.84;100.00
28630;BME280;15817;42.130;24.762;2023-04-04T09:09:53;98567.41;;;11.87;100.00
28630;BME280;15817;42.130;24.762;2023-04-04T09:12:33;98570.09;;;11.87;100.00
28630;BME280;15817;42.130;24.762;2023-04-04T09:15:10;98569.22;;;11.86;100.00
28630;BME280;15817;42.130;24.762;2023-04-04T09:17:36;98569.16;;;11.88;100.00
28630;BME280;15817;42.130;24.762;2023-04-04T09:20:42;98587.59;;;11.94;100.00
28630;BME280;15817;42.130;24.762;2023-04-04T09:23:13;98577.88;;;11.93;100.00
28630;BME280;15817;42.130;24.762;2023-04-04T09:25:51;98570.00;;;11.88;100.00
28630;BME280;15817;42.130;24.762;2023-04-04T09:28:26;98571.53;;;11.97;100.00
28630;BME280;15817;42.130;24.762;2023-04-04T09:30:52;98569.78;;;11.96;100.00
28630;BME280;15817;42.130;24.762;2023-04-04T09:33:26;98577.72;;;11.98;100.00
28630;BME280;15817;42.130;24.762;2023-04-04T09:36:06;98585.56;;;12.02;100.00
28630;BME280;15817;42.130;24.762;2023-04-04T09:38:42;98580.09;;;12.07;100.00
28630;BME280;15817;42.130;24.762;2023-04-04T09:41:13;98587.06;;;12.11;100.00
28630;BME280;15817;42.130;24.762;2023-04-04T09:43:39;98580.88;;;12.10;100.00
28630;BME280;15817;42.130;24.762;2023-04-04T09:46:08;98579.13;;;12.09;100.00
28630;BME280;15817;42.130;24.762;2023-04-04T09:48:34;98586.06;;;12.13;100.00
28630;BME280;15817;42.130;24.762;2023-04-04T09:51:06;98587.06;;;12.11;100.00
28630;BME280;15817;42.130;24.762;2023-04-04T09:53:35;98586.94;;;12.14;100.00
28630;BME280;15817;42.130;24.762;2023-04-04T09:56:06;98585.84;;;12.21;100.00
28630;BME280;15817;42.130;24.762;2023-04-04T09:58:33;98580.53;;;12.21;100.00
28630;BME280;15817;42.130;24.762;2023-04-04T10:01:07;98576.00;;;12.23;100.00
28630;BME280;15817;42.130;24.762;2023-04-04T10:03:36;98582.91;;;12.28;100.00
28630;BME280;15817;42.130;24.762;2023-04-04T10:06:08;98580.19;;;12.30;100.00
28630;BME280;15817;42.130;24.762;2023-04-04T10:08:39;98584.66;;;12.29;100.00
28630;BME280;15817;42.130;24.762;2023-04-04T10:11:06;98587.22;;;12.32;100.00
28630;BME280;15817;42.130;24.762;2023-04-04T10:13:36;98588.03;;;12.34;100.00
28630;BME280;15817;42.130;24.762;2023-04-04T10:16:05;98587.88;;;12.39;100.00
28630;BME280;15817;42.130;24.762;2023-04-04T10:18:34;98574.59;;;12.38;100.00
28630;BME280;15817;42.130;24.762;2023-04-04T10:21:04;98575.28;;;12.44;100.00
28630;BME280;15817;42.130;24.762;2023-04-04T10:23:30;98566.28;;;12.47;100.00
28630;BME280;15817;42.130;24.762;2023-04-04T10:26:00;98570.44;;;12.55;100.00
28630;BME280;15817;42.130;24.762;2023-04-04T10:28:27;98562.25;;;12.60;100.00
28630;BME280;15817;42.130;24.762;2023-04-04T10:31:23;98549.22;;;12.77;100.00
28630;BME280;15817;42.130;24.762;2023-04-04T10:34:09;98544.78;;;13.01;100.00
28630;BME280;15817;42.130;24.762;2023-04-04T10:36:43;98559.28;;;13.42;100.00
28630;BME280;15817;42.130;24.762;2023-04-04T10:39:32;98549.25;;;13.70;100.00
28630;BME280;15817;42.130;24.762;2023-04-04T10:42:05;98551.13;;;14.12;100.00
28630;BME280;15817;42.130;24.762;2023-04-04T10:44:33;98553.03;;;14.30;100.00
28630;BME280;15817;42.130;24.762;2023-04-04T10:47:16;98551.41;;;14.48;100.00
28630;BME280;15817;42.130;24.762;2023-04-04T10:49:43;98553.47;;;14.20;100.00
28630;BME280;15817;42.130;24.762;2023-04-04T10:52:16;98555.28;;;13.97;100.00
28630;BME280;15817;42.130;24.762;2023-04-04T10:54:43;98550.25;;;13.90;100.00
28630;BME280;15817;42.130;24.762;2023-04-04T10:57:12;98540.94;;;13.78;100.00
28630;BME280;15817;42.130;24.762;2023-04-04T11:00:15;98541.53;;;13.85;100.00
28630;BME280;15817;42.130;24.762;2023-04-04T11:05:31;98546.97;;;13.83;100.00
28630;BME280;15817;42.130;24.762;2023-04-04T11:08:05;98533.03;;;13.97;100.00
28630;BME280;15817;42.130;24.762;2023-04-04T11:10:36;98553.56;;;14.38;100.00
28630;BME280;15817;42.130;24.762;2023-04-04T11:13:12;98545.88;;;14.73;100.00
28630;BME280;15817;42.130;24.762;2023-04-04T11:18:19;98540.31;;;14.35;100.00
28630;BME280;15817;42.130;24.762;2023-04-04T11:20:46;98535.97;;;14.33;100.00
28630;BME280;15817;42.130;24.762;2023-04-04T11:23:19;98537.59;;;14.37;100.00
28630;BME280;15817;42.130;24.762;2023-04-04T11:25:54;98538.81;;;14.30;100.00
28630;BME280;15817;42.130;24.762;2023-04-04T11:28:42;98546.47;;;14.17;100.00
28630;BME280;15817;42.130;24.762;2023-04-04T11:42:05;98523.38;;;14.14;100.00
28630;BME280;15817;42.130;24.762;2023-04-04T11:45:03;98530.59;;;14.12;100.00
28630;BME280;15817;42.130;24.762;2023-04-04T11:47:30;98538.28;;;14.20;100.00
28630;BME280;15817;42.130;24.762;2023-04-04T11:50:00;98532.94;;;14.20;100.00
28630;BME280;15817;42.130;24.762;2023-04-04T11:52:33;98531.34;;;14.16;100.00
28630;BME280;15817;42.130;24.762;2023-04-04T11:55:18;98537.63;;;14.15;100.00
28630;BME280;15817;42.130;24.762;2023-04-04T11:57:50;98530.78;;;14.08;100.00
28630;BME280;15817;42.130;24.762;2023-04-04T12:00:32;98532.63;;;14.07;100.00
28630;BME280;15817;42.130;24.762;2023-04-04T12:03:03;98531.66;;;14.08;100.00
28630;BME280;15817;42.130;24.762;2023-04-04T12:05:33;98529.94;;;14.07;100.00
28630;BME280;15817;42.130;24.762;2023-04-04T12:08:02;98534.47;;;14.05;100.00
28630;BME280;15817;42.130;24.762;2023-04-04T12:10:35;98532.84;;;14.01;100.00
28630;BME280;15817;42.130;24.762;2023-04-04T12:13:06;98528.50;;;13.99;100.00
28630;BME280;15817;42.130;24.762;2023-04-04T12:15:33;98525.97;;;13.96;100.00
28630;BME280;15817;42.130;24.762;2023-04-04T12:18:07;98529.56;;;13.95;100.00
28630;BME280;15817;42.130;24.762;2023-04-04T12:20:37;98527.06;;;13.90;100.00
28630;BME280;15817;42.130;24.762;2023-04-04T12:23:03;98530.56;;;13.92;100.00
28630;BME280;15817;42.130;24.762;2023-04-04T12:25:29;98530.78;;;13.86;100.00
28630;BME280;15817;42.130;24.762;2023-04-04T12:27:58;98531.94;;;13.81;100.00
28630;BME280;15817;42.130;24.762;2023-04-04T12:30:29;98539.31;;;13.74;100.00
28630;BME280;15817;42.130;24.762;2023-04-04T12:32:55;98531.59;;;13.66;100.00
28630;BME280;15817;42.130;24.762;2023-04-04T12:35:24;98534.19;;;13.46;100.00
28630;BME280;15817;42.130;24.762;2023-04-04T12:38:06;98540.78;;;13.37;100.00
28630;BME280;15817;42.130;24.762;2023-04-04T12:40:38;98541.97;;;13.29;100.00
28630;BME280;15817;42.130;24.762;2023-04-04T12:43:08;98542.44;;;13.17;100.00
28630;BME280;15817;42.130;24.762;2023-04-04T12:45:38;98544.22;;;13.16;100.00
28630;BME280;15817;42.130;24.762;2023-04-04T12:48:12;98555.00;;;13.15;100.00
28630;BME280;15817;42.130;24.762;2023-04-04T12:50:58;98548.84;;;13.11;100.00
28630;BME280;15817;42.130;24.762;2023-04-04T12:53:26;98553.38;;;13.09;100.00
28630;BME280;15817;42.130;24.762;2023-04-04T12:55:54;98558.00;;;13.04;100.00
28630;BME280;15817;42.130;24.762;2023-04-04T12:58:21;98566.09;;;13.02;100.00
28630;BME280;15817;42.130;24.762;2023-04-04T13:00:54;98568.97;;;12.96;100.00
28630;BME280;15817;42.130;24.762;2023-04-04T13:03:24;98583.56;;;12.86;100.00
28630;BME280;15817;42.130;24.762;2023-04-04T13:05:53;98580.56;;;12.46;100.00
28630;BME280;15817;42.130;24.762;2023-04-04T13:08:19;98603.84;;;12.41;100.00
28630;BME280;15817;42.130;24.762;2023-04-04T13:11:03;98614.75;;;12.33;100.00
28630;BME280;15817;42.130;24.762;2023-04-04T13:13:38;98616.66;;;12.29;100.00
28630;BME280;15817;42.130;24.762;2023-04-04T13:16:07;98618.72;;;12.21;100.00
28630;BME280;15817;42.130;24.762;2023-04-04T13:18:40;98623.38;;;12.13;100.00
28630;BME280;15817;42.130;24.762;2023-04-04T13:21:09;98619.97;;;12.10;100.00
28630;BME280;15817;42.130;24.762;2023-04-04T13:23:38;98624.53;;;12.06;100.00
28630;BME280;15817;42.130;24.762;2023-04-04T13:26:08;98626.09;;;12.12;100.00